sensor_id;sensor_type;location;lat;lon;timestamp;P1;durP1;ratioP1;P2;durP2;ratioP2
24337;SDS011;12457;50.832;4.346;2022-09-09T00:00:28;4.90;;;1.80;;
24337;SDS011;12457;50.832;4.346;2022-09-09T00:05:55;7.00;;;1.80;;
24337;SDS011;12457;50.832;4.346;2022-09-09T00:08:36;3.22;;;1.58;;
24337;SDS011;12457;50.832;4.346;2022-09-09T00:11:35;5.28;;;1.88;;
24337;SDS011;12457;50.832;4.346;2022-09-09T00:14:13;7.55;;;1.90;;
24337;SDS011;12457;50.832;4.346;2022-09-09T00:16:41;6.63;;;1.97;;
24337;SDS011;12457;50.832;4.346;2022-09-09T00:19:23;6.15;;;1.92;;
24337;SDS011;12457;50.832;4.346;2022-09-09T00:22:02;4.45;;;1.88;;
24337;SDS011;12457;50.832;4.346;2022-09-09T00:24:48;8.27;;;1.70;;
24337;SDS011;12457;50.832;4.346;2022-09-09T00:32:39;4.25;;;1.63;;
24337;SDS011;12457;50.832;4.346;2022-09-09T00:37:44;8.27;;;1.83;;
24337;SDS011;12457;50.832;4.346;2022-09-09T00:40:18;5.43;;;1.77;;
24337;SDS011;12457;50.832;4.346;2022-09-09T00:51:46;11.23;;;1.75;;
24337;SDS011;12457;50.832;4.346;2022-09-09T00:57:27;8.23;;;1.52;;
24337;SDS011;12457;50.832;4.346;2022-09-09T00:59:57;4.60;;;1.35;;
24337;SDS011;12457;50.832;4.346;2022-09-09T01:08:05;7.10;;;1.75;;
24337;SDS011;12457;50.832;4.346;2022-09-09T01:10:49;4.57;;;1.67;;
24337;SDS011;12457;50.832;4.346;2022-09-09T01:13:28;13.95;;;1.80;;
24337;SDS011;12457;50.832;4.346;2022-09-09T01:15:57;8.20;;;1.80;;
24337;SDS011;12457;50.832;4.346;2022-09-09T01:18:44;8.57;;;1.77;;
24337;SDS011;12457;50.832;4.346;2022-09-09T01:27:12;11.10;;;1.67;;
24337;SDS011;12457;50.832;4.346;2022-09-09T01:29:47;9.25;;;1.60;;
24337;SDS011;12457;50.832;4.346;2022-09-09T01:35:11;7.00;;;1.80;;
24337;SDS011;12457;50.832;4.346;2022-09-09T01:37:52;9.95;;;2.10;;
24337;SDS011;12457;50.832;4.346;2022-09-09T01:40:20;4.82;;;1.98;;
24337;SDS011;12457;50.832;4.346;2022-09-09T01:42:46;10.65;;;2.05;;
24337;SDS011;12457;50.832;4.346;2022-09-09T01:45:12;5.43;;;1.75;;
24337;SDS011;12457;50.832;4.346;2022-09-09T01:47:37;8.68;;;1.77;;
24337;SDS011;12457;50.832;4.346;2022-09-09T01:50:03;11.35;;;1.95;;
24337;SDS011;12457;50.832;4.346;2022-09-09T01:52:30;11.05;;;1.88;;
24337;SDS011;12457;50.832;4.346;2022-09-09T01:54:57;11.00;;;2.30;;
24337;SDS011;12457;50.832;4.346;2022-09-09T01:57:52;10.77;;;2.13;;
24337;SDS011;12457;50.832;4.346;2022-09-09T02:00:27;5.32;;;1.70;;
24337;SDS011;12457;50.832;4.346;2022-09-09T02:05:38;9.10;;;2.20;;
24337;SDS011;12457;50.832;4.346;2022-09-09T02:08:17;10.23;;;2.55;;
24337;SDS011;12457;50.832;4.346;2022-09-09T02:13:37;10.88;;;2.85;;
24337;SDS011;12457;50.832;4.346;2022-09-09T02:16:15;14.57;;;1.98;;
24337;SDS011;12457;50.832;4.346;2022-09-09T02:19:01;15.98;;;2.67;;
24337;SDS011;12457;50.832;4.346;2022-09-09T02:21:34;11.85;;;2.78;;
24337;SDS011;12457;50.832;4.346;2022-09-09T02:24:04;10.20;;;2.35;;
24337;SDS011;12457;50.832;4.346;2022-09-09T02:26:38;16.08;;;3.05;;
24337;SDS011;12457;50.832;4.346;2022-09-09T02:29:11;14.32;;;2.17;;
24337;SDS011;12457;50.832;4.346;2022-09-09T02:31:47;13.10;;;2.40;;
24337;SDS011;12457;50.832;4.346;2022-09-09T02:34:16;9.88;;;2.42;;
24337;SDS011;12457;50.832;4.346;2022-09-09T02:36:48;10.23;;;2.08;;
24337;SDS011;12457;50.832;4.346;2022-09-09T02:39:19;16.35;;;3.10;;
24337;SDS011;12457;50.832;4.346;2022-09-09T02:41:44;12.02;;;2.85;;
24337;SDS011;12457;50.832;4.346;2022-09-09T02:44:20;13.13;;;2.63;;
24337;SDS011;12457;50.832;4.346;2022-09-09T02:58:11;9.20;;;2.17;;
24337;SDS011;12457;50.832;4.346;2022-09-09T03:00:42;14.23;;;2.38;;
24337;SDS011;12457;50.832;4.346;2022-09-09T03:03:12;12.25;;;2.40;;
24337;SDS011;12457;50.832;4.346;2022-09-09T03:05:38;10.52;;;2.30;;
24337;SDS011;12457;50.832;4.346;2022-09-09T03:08:04;15.73;;;3.00;;
24337;SDS011;12457;50.832;4.346;2022-09-09T03:10:36;10.40;;;2.03;;
24337;SDS011;12457;50.832;4.346;2022-09-09T03:13:02;10.00;;;2.60;;
24337;SDS011;12457;50.832;4.346;2022-09-09T03:15:30;12.18;;;2.28;;
24337;SDS011;12457;50.832;4.346;2022-09-09T03:17:57;11.73;;;2.35;;
24337;SDS011;12457;50.832;4.346;2022-09-09T03:20:27;13.15;;;2.72;;
24337;SDS011;12457;50.832;4.346;2022-09-09T03:22:54;10.93;;;2.08;;
24337;SDS011;12457;50.832;4.346;2022-09-09T03:25:21;8.23;;;1.95;;
24337;SDS011;12457;50.832;4.346;2022-09-09T03:27:50;13.10;;;2.90;;
24337;SDS011;12457;50.832;4.346;2022-09-09T03:30:19;11.18;;;2.35;;
24337;SDS011;12457;50.832;4.346;2022-09-09T03:32:49;13.93;;;3.00;;
24337;SDS011;12457;50.832;4.346;2022-09-09T03:35:15;14.63;;;2.85;;
24337;SDS011;12457;50.832;4.346;2022-09-09T03:37:41;15.93;;;3.13;;
24337;SDS011;12457;50.832;4.346;2022-09-09T03:40:10;14.38;;;2.60;;
24337;SDS011;12457;50.832;4.346;2022-09-09T03:42:39;9.82;;;2.58;;
24337;SDS011;12457;50.832;4.346;2022-09-09T03:45:06;14.20;;;2.78;;
24337;SDS011;12457;50.832;4.346;2022-09-09T03:47:39;10.95;;;2.28;;
24337;SDS011;12457;50.832;4.346;2022-09-09T03:50:08;12.93;;;2.50;;
24337;SDS011;12457;50.832;4.346;2022-09-09T03:52:38;10.80;;;2.40;;
24337;SDS011;12457;50.832;4.346;2022-09-09T03:55:06;14.18;;;2.78;;
24337;SDS011;12457;50.832;4.346;2022-09-09T03:57:32;16.73;;;2.65;;
24337;SDS011;12457;50.832;4.346;2022-09-09T04:00:01;14.73;;;2.97;;
24337;SDS011;12457;50.832;4.346;2022-09-09T04:02:29;13.38;;;2.80;;
24337;SDS011;12457;50.832;4.346;2022-09-09T04:04:55;10.50;;;2.28;;
24337;SDS011;12457;50.832;4.346;2022-09-09T04:07:24;11.45;;;2.83;;
24337;SDS011;12457;50.832;4.346;2022-09-09T04:09:52;17.73;;;3.13;;
24337;SDS011;12457;50.832;4.346;2022-09-09T04:12:19;16.70;;;2.60;;
24337;SDS011;12457;50.832;4.346;2022-09-09T04:14:46;23.10;;;3.17;;
24337;SDS011;12457;50.832;4.346;2022-09-09T04:17:11;13.80;;;2.85;;
24337;SDS011;12457;50.832;4.346;2022-09-09T04:19:37;17.35;;;2.67;;
24337;SDS011;12457;50.832;4.346;2022-09-09T04:22:03;18.38;;;2.58;;
24337;SDS011;12457;50.832;4.346;2022-09-09T04:24:29;15.40;;;3.38;;
24337;SDS011;12457;50.832;4.346;2022-09-09T04:26:54;14.38;;;3.10;;
24337;SDS011;12457;50.832;4.346;2022-09-09T04:29:20;18.17;;;3.47;;
24337;SDS011;12457;50.832;4.346;2022-09-09T04:31:46;16.85;;;3.78;;
24337;SDS011;12457;50.832;4.346;2022-09-09T04:34:11;16.63;;;2.97;;
24337;SDS011;12457;50.832;4.346;2022-09-09T04:36:37;17.08;;;3.08;;
24337;SDS011;12457;50.832;4.346;2022-09-09T04:39:04;18.83;;;3.50;;
24337;SDS011;12457;50.832;4.346;2022-09-09T04:41:29;14.45;;;2.83;;
24337;SDS011;12457;50.832;4.346;2022-09-09T04:43:56;13.82;;;3.08;;
24337;SDS011;12457;50.832;4.346;2022-09-09T04:46:22;15.35;;;3.60;;
24337;SDS011;12457;50.832;4.346;2022-09-09T04:48:48;15.38;;;3.20;;
24337;SDS011;12457;50.832;4.346;2022-09-09T04:51:15;23.67;;;3.35;;
24337;SDS011;12457;50.832;4.346;2022-09-09T04:53:41;20.23;;;3.08;;
24337;SDS011;12457;50.832;4.346;2022-09-09T04:58:35;11.45;;;2.78;;
24337;SDS011;12457;50.832;4.346;2022-09-09T05:01:11;20.80;;;3.90;;
24337;SDS011;12457;50.832;4.346;2022-09-09T05:03:39;13.18;;;3.17;;
24337;SDS011;12457;50.832;4.346;2022-09-09T05:06:10;16.95;;;4.00;;
24337;SDS011;12457;50.832;4.346;2022-09-09T05:08:46;15.13;;;3.65;;
24337;SDS011;12457;50.832;4.346;2022-09-09T05:13:51;10.98;;;3.42;;
24337;SDS011;12457;50.832;4.346;2022-09-09T05:16:18;13.60;;;2.90;;
24337;SDS011;12457;50.832;4.346;2022-09-09T05:18:44;14.45;;;3.53;;
24337;SDS011;12457;50.832;4.346;2022-09-09T05:21:11;11.82;;;3.38;;
24337;SDS011;12457;50.832;4.346;2022-09-09T05:23:38;11.27;;;3.45;;
24337;SDS011;12457;50.832;4.346;2022-09-09T05:26:04;18.05;;;4.03;;
24337;SDS011;12457;50.832;4.346;2022-09-09T05:28:33;16.75;;;4.53;;
24337;SDS011;12457;50.832;4.346;2022-09-09T05:31:02;16.33;;;3.55;;
24337;SDS011;12457;50.832;4.346;2022-09-09T05:33:30;15.82;;;3.85;;
24337;SDS011;12457;50.832;4.346;2022-09-09T05:36:04;16.42;;;3.58;;
24337;SDS011;12457;50.832;4.346;2022-09-09T05:38:32;15.32;;;3.08;;
24337;SDS011;12457;50.832;4.346;2022-09-09T05:40:59;11.05;;;2.88;;
24337;SDS011;12457;50.832;4.346;2022-09-09T05:43:28;13.25;;;3.53;;
24337;SDS011;12457;50.832;4.346;2022-09-09T05:46:04;11.23;;;3.10;;
24337;SDS011;12457;50.832;4.346;2022-09-09T05:48:36;15.30;;;4.28;;
24337;SDS011;12457;50.832;4.346;2022-09-09T05:51:03;17.40;;;3.63;;
24337;SDS011;12457;50.832;4.346;2022-09-09T05:53:31;12.30;;;2.97;;
24337;SDS011;12457;50.832;4.346;2022-09-09T05:55:59;16.35;;;3.13;;
24337;SDS011;12457;50.832;4.346;2022-09-09T05:58:32;21.67;;;3.15;;
24337;SDS011;12457;50.832;4.346;2022-09-09T06:01:09;13.05;;;2.83;;
24337;SDS011;12457;50.832;4.346;2022-09-09T06:03:36;19.20;;;4.60;;
24337;SDS011;12457;50.832;4.346;2022-09-09T06:06:04;13.52;;;3.10;;
24337;SDS011;12457;50.832;4.346;2022-09-09T06:08:36;16.23;;;2.70;;
24337;SDS011;12457;50.832;4.346;2022-09-09T06:11:08;14.25;;;3.28;;
24337;SDS011;12457;50.832;4.346;2022-09-09T06:13:35;14.10;;;3.03;;
24337;SDS011;12457;50.832;4.346;2022-09-09T06:16:11;16.92;;;3.40;;
24337;SDS011;12457;50.832;4.346;2022-09-09T06:18:39;22.80;;;3.65;;
24337;SDS011;12457;50.832;4.346;2022-09-09T06:21:08;16.60;;;2.95;;
24337;SDS011;12457;50.832;4.346;2022-09-09T06:23:40;13.33;;;2.60;;
24337;SDS011;12457;50.832;4.346;2022-09-09T06:26:13;11.70;;;2.83;;
24337;SDS011;12457;50.832;4.346;2022-09-09T06:28:49;11.40;;;2.88;;
24337;SDS011;12457;50.832;4.346;2022-09-09T06:31:18;13.75;;;2.90;;
24337;SDS011;12457;50.832;4.346;2022-09-09T06:33:47;13.02;;;2.88;;
24337;SDS011;12457;50.832;4.346;2022-09-09T06:36:18;12.93;;;2.97;;
24337;SDS011;12457;50.832;4.346;2022-09-09T06:38:45;16.50;;;2.42;;
24337;SDS011;12457;50.832;4.346;2022-09-09T06:41:12;12.70;;;2.75;;
24337;SDS011;12457;50.832;4.346;2022-09-09T06:43:39;15.70;;;3.22;;
24337;SDS011;12457;50.832;4.346;2022-09-09T06:46:06;16.98;;;3.38;;
24337;SDS011;12457;50.832;4.346;2022-09-09T06:48:34;17.23;;;2.88;;
24337;SDS011;12457;50.832;4.346;2022-09-09T06:51:09;12.05;;;2.53;;
24337;SDS011;12457;50.832;4.346;2022-09-09T06:53:39;13.65;;;2.65;;
24337;SDS011;12457;50.832;4.346;2022-09-09T06:58:54;9.07;;;2.53;;
24337;SDS011;12457;50.832;4.346;2022-09-09T07:01:22;15.60;;;2.97;;
24337;SDS011;12457;50.832;4.346;2022-09-09T07:03:53;13.85;;;2.40;;
24337;SDS011;12457;50.832;4.346;2022-09-09T07:06:21;19.60;;;3.45;;
24337;SDS011;12457;50.832;4.346;2022-09-09T07:08:57;10.30;;;2.97;;
24337;SDS011;12457;50.832;4.346;2022-09-09T07:11:25;12.82;;;3.28;;
24337;SDS011;12457;50.832;4.346;2022-09-09T07:13:56;14.23;;;2.50;;
24337;SDS011;12457;50.832;4.346;2022-09-09T07:16:24;11.07;;;2.35;;
24337;SDS011;12457;50.832;4.346;2022-09-09T07:18:50;13.55;;;2.42;;
24337;SDS011;12457;50.832;4.346;2022-09-09T07:21:17;8.65;;;2.47;;
24337;SDS011;12457;50.832;4.346;2022-09-09T07:23:44;16.30;;;3.33;;
24337;SDS011;12457;50.832;4.346;2022-09-09T07:26:17;10.82;;;2.35;;
24337;SDS011;12457;50.832;4.346;2022-09-09T07:28:55;14.60;;;2.40;;
24337;SDS011;12457;50.832;4.346;2022-09-09T07:31:29;12.48;;;2.70;;
24337;SDS011;12457;50.832;4.346;2022-09-09T07:33:57;16.63;;;2.67;;
24337;SDS011;12457;50.832;4.346;2022-09-09T07:36:25;8.35;;;2.63;;
24337;SDS011;12457;50.832;4.346;2022-09-09T07:38:54;19.55;;;2.40;;
24337;SDS011;12457;50.832;4.346;2022-09-09T07:41:23;11.93;;;2.40;;
24337;SDS011;12457;50.832;4.346;2022-09-09T07:43:50;13.82;;;3.08;;
24337;SDS011;12457;50.832;4.346;2022-09-09T07:46:19;10.32;;;2.65;;
24337;SDS011;12457;50.832;4.346;2022-09-09T07:48:46;12.80;;;2.75;;
24337;SDS011;12457;50.832;4.346;2022-09-09T07:51:16;12.23;;;2.67;;
24337;SDS011;12457;50.832;4.346;2022-09-09T07:53:47;9.05;;;2.83;;
24337;SDS011;12457;50.832;4.346;2022-09-09T07:56:16;16.67;;;3.10;;
24337;SDS011;12457;50.832;4.346;2022-09-09T07:58:46;13.43;;;4.63;;
24337;SDS011;12457;50.832;4.346;2022-09-09T08:01:16;10.25;;;2.60;;
24337;SDS011;12457;50.832;4.346;2022-09-09T08:03:45;26.48;;;2.75;;
24337;SDS011;12457;50.832;4.346;2022-09-09T08:06:16;9.50;;;2.50;;
24337;SDS011;12457;50.832;4.346;2022-09-09T08:08:55;12.60;;;2.70;;
24337;SDS011;12457;50.832;4.346;2022-09-09T08:11:25;15.77;;;2.97;;
24337;SDS011;12457;50.832;4.346;2022-09-09T08:13:53;8.23;;;2.40;;
24337;SDS011;12457;50.832;4.346;2022-09-09T08:16:21;11.13;;;2.13;;
24337;SDS011;12457;50.832;4.346;2022-09-09T08:18:49;17.90;;;2.58;;
24337;SDS011;12457;50.832;4.346;2022-09-09T08:21:20;13.57;;;3.13;;
24337;SDS011;12457;50.832;4.346;2022-09-09T08:23:52;11.85;;;2.60;;
24337;SDS011;12457;50.832;4.346;2022-09-09T08:26:19;13.07;;;2.40;;
24337;SDS011;12457;50.832;4.346;2022-09-09T08:28:50;11.38;;;2.42;;
24337;SDS011;12457;50.832;4.346;2022-09-09T08:31:24;12.73;;;2.55;;
24337;SDS011;12457;50.832;4.346;2022-09-09T08:34:00;10.27;;;2.38;;
24337;SDS011;12457;50.832;4.346;2022-09-09T08:36:28;15.00;;;2.80;;
24337;SDS011;12457;50.832;4.346;2022-09-09T08:38:58;13.13;;;3.47;;
24337;SDS011;12457;50.832;4.346;2022-09-09T08:49:29;11.65;;;2.50;;
24337;SDS011;12457;50.832;4.346;2022-09-09T08:55:21;16.23;;;3.88;;
24337;SDS011;12457;50.832;4.346;2022-09-09T08:58:02;12.20;;;5.00;;
24337;SDS011;12457;50.832;4.346;2022-09-09T09:03:38;35.03;;;13.20;;
24337;SDS011;12457;50.832;4.346;2022-09-09T09:06:20;26.23;;;8.95;;
24337;SDS011;12457;50.832;4.346;2022-09-09T09:12:49;17.75;;;7.32;;
24337;SDS011;12457;50.832;4.346;2022-09-09T09:15:20;14.65;;;5.38;;
24337;SDS011;12457;50.832;4.346;2022-09-09T09:17:48;14.73;;;4.95;;
24337;SDS011;12457;50.832;4.346;2022-09-09T09:20:15;16.83;;;4.85;;
24337;SDS011;12457;50.832;4.346;2022-09-09T09:22:48;19.30;;;5.85;;
24337;SDS011;12457;50.832;4.346;2022-09-09T09:25:48;19.75;;;6.85;;
24337;SDS011;12457;50.832;4.346;2022-09-09T09:30:39;59.88;;;29.45;;
24337;SDS011;12457;50.832;4.346;2022-09-09T09:33:14;62.03;;;34.60;;
24337;SDS011;12457;50.832;4.346;2022-09-09T09:35:59;17.42;;;7.22;;
24337;SDS011;12457;50.832;4.346;2022-09-09T09:38:25;21.10;;;7.20;;
24337;SDS011;12457;50.832;4.346;2022-09-09T09:40:56;34.05;;;15.93;;
24337;SDS011;12457;50.832;4.346;2022-09-09T09:43:26;34.05;;;19.75;;
24337;SDS011;12457;50.832;4.346;2022-09-09T09:45:54;21.08;;;7.35;;
24337;SDS011;12457;50.832;4.346;2022-09-09T09:48:20;15.45;;;5.78;;
24337;SDS011;12457;50.832;4.346;2022-09-09T09:50:59;16.95;;;4.75;;
24337;SDS011;12457;50.832;4.346;2022-09-09T09:56:05;21.35;;;9.02;;
24337;SDS011;12457;50.832;4.346;2022-09-09T09:58:34;15.32;;;3.70;;
24337;SDS011;12457;50.832;4.346;2022-09-09T10:01:25;19.52;;;7.88;;
24337;SDS011;12457;50.832;4.346;2022-09-09T10:03:54;12.23;;;4.65;;
24337;SDS011;12457;50.832;4.346;2022-09-09T10:06:35;15.00;;;6.15;;
24337;SDS011;12457;50.832;4.346;2022-09-09T10:11:48;16.30;;;6.00;;
24337;SDS011;12457;50.832;4.346;2022-09-09T10:14:21;34.55;;;17.52;;
24337;SDS011;12457;50.832;4.346;2022-09-09T10:22:32;10.95;;;3.28;;
24337;SDS011;12457;50.832;4.346;2022-09-09T10:25:05;10.68;;;3.00;;
24337;SDS011;12457;50.832;4.346;2022-09-09T10:27:50;8.15;;;2.92;;
24337;SDS011;12457;50.832;4.346;2022-09-09T10:36:40;14.05;;;4.50;;
24337;SDS011;12457;50.832;4.346;2022-09-09T10:52:31;11.85;;;3.83;;
24337;SDS011;12457;50.832;4.346;2022-09-09T10:55:10;8.80;;;3.20;;
24337;SDS011;12457;50.832;4.346;2022-09-09T10:57:50;10.93;;;2.53;;
24337;SDS011;12457;50.832;4.346;2022-09-09T11:03:05;13.65;;;2.72;;
24337;SDS011;12457;50.832;4.346;2022-09-09T11:08:44;13.30;;;2.50;;
24337;SDS011;12457;50.832;4.346;2022-09-09T11:11:12;8.52;;;3.08;;
24337;SDS011;12457;50.832;4.346;2022-09-09T11:16:33;14.23;;;2.63;;
24337;SDS011;12457;50.832;4.346;2022-09-09T11:19:13;10.90;;;3.08;;
24337;SDS011;12457;50.832;4.346;2022-09-09T11:22:04;13.60;;;2.42;;
24337;SDS011;12457;50.832;4.346;2022-09-09T11:33:51;11.05;;;2.45;;
24337;SDS011;12457;50.832;4.346;2022-09-09T11:42:05;10.20;;;2.95;;
24337;SDS011;12457;50.832;4.346;2022-09-09T11:44:37;12.60;;;3.03;;
24337;SDS011;12457;50.832;4.346;2022-09-09T11:47:03;17.55;;;2.58;;
24337;SDS011;12457;50.832;4.346;2022-09-09T11:49:29;12.05;;;2.65;;
24337;SDS011;12457;50.832;4.346;2022-09-09T11:55:11;14.52;;;2.50;;
24337;SDS011;12457;50.832;4.346;2022-09-09T11:58:00;15.80;;;3.67;;
24337;SDS011;12457;50.832;4.346;2022-09-09T12:03:08;13.05;;;3.47;;
24337;SDS011;12457;50.832;4.346;2022-09-09T12:08:52;13.43;;;4.13;;
24337;SDS011;12457;50.832;4.346;2022-09-09T12:11:26;14.80;;;4.43;;
24337;SDS011;12457;50.832;4.346;2022-09-09T12:13:59;10.95;;;3.80;;
24337;SDS011;12457;50.832;4.346;2022-09-09T12:16:46;12.65;;;3.20;;
24337;SDS011;12457;50.832;4.346;2022-09-09T12:19:16;10.88;;;3.45;;
24337;SDS011;12457;50.832;4.346;2022-09-09T12:24:34;8.47;;;2.67;;
24337;SDS011;12457;50.832;4.346;2022-09-09T12:27:55;7.70;;;2.35;;
24337;SDS011;12457;50.832;4.346;2022-09-09T12:30:12;8.25;;;2.03;;
24337;SDS011;12457;50.832;4.346;2022-09-09T12:32:40;9.02;;;2.53;;
24337;SDS011;12457;50.832;4.346;2022-09-09T12:37:55;10.73;;;2.63;;
24337;SDS011;12457;50.832;4.346;2022-09-09T12:40:30;12.93;;;3.08;;
24337;SDS011;12457;50.832;4.346;2022-09-09T12:43:00;9.00;;;2.47;;
24337;SDS011;12457;50.832;4.346;2022-09-09T12:45:41;8.10;;;1.90;;
24337;SDS011;12457;50.832;4.346;2022-09-09T12:48:08;6.90;;;2.70;;
24337;SDS011;12457;50.832;4.346;2022-09-09T12:50:48;7.95;;;2.10;;
24337;SDS011;12457;50.832;4.346;2022-09-09T12:53:23;7.80;;;1.92;;
24337;SDS011;12457;50.832;4.346;2022-09-09T12:55:57;4.28;;;1.58;;
24337;SDS011;12457;50.832;4.346;2022-09-09T12:58:29;5.88;;;1.95;;
24337;SDS011;12457;50.832;4.346;2022-09-09T13:00:59;5.20;;;1.60;;
24337;SDS011;12457;50.832;4.346;2022-09-09T13:03:29;6.18;;;1.60;;
24337;SDS011;12457;50.832;4.346;2022-09-09T13:05:57;5.72;;;1.40;;
24337;SDS011;12457;50.832;4.346;2022-09-09T13:08:34;8.57;;;1.77;;
24337;SDS011;12457;50.832;4.346;2022-09-09T13:11:01;6.35;;;2.20;;
24337;SDS011;12457;50.832;4.346;2022-09-09T13:13:37;8.23;;;1.88;;
24337;SDS011;12457;50.832;4.346;2022-09-09T13:18:56;7.80;;;2.40;;
24337;SDS011;12457;50.832;4.346;2022-09-09T13:21:33;9.98;;;2.35;;
24337;SDS011;12457;50.832;4.346;2022-09-09T13:24:03;9.00;;;1.90;;
24337;SDS011;12457;50.832;4.346;2022-09-09T13:26:33;4.68;;;1.40;;
24337;SDS011;12457;50.832;4.346;2022-09-09T13:29:18;6.28;;;2.60;;
24337;SDS011;12457;50.832;4.346;2022-09-09T13:34:26;5.78;;;1.60;;
24337;SDS011;12457;50.832;4.346;2022-09-09T13:36:57;8.55;;;1.70;;
24337;SDS011;12457;50.832;4.346;2022-09-09T13:39:36;11.82;;;1.83;;
24337;SDS011;12457;50.832;4.346;2022-09-09T13:42:02;4.63;;;1.52;;
24337;SDS011;12457;50.832;4.346;2022-09-09T13:44:31;10.68;;;1.52;;
24337;SDS011;12457;50.832;4.346;2022-09-09T13:49:27;8.23;;;2.33;;
24337;SDS011;12457;50.832;4.346;2022-09-09T13:52:05;2.90;;;1.30;;
24337;SDS011;12457;50.832;4.346;2022-09-09T13:54:42;4.28;;;1.60;;
24337;SDS011;12457;50.832;4.346;2022-09-09T13:57:25;3.47;;;1.35;;
24337;SDS011;12457;50.832;4.346;2022-09-09T14:05:09;4.30;;;1.65;;
24337;SDS011;12457;50.832;4.346;2022-09-09T14:07:36;4.60;;;1.48;;
24337;SDS011;12457;50.832;4.346;2022-09-09T14:10:13;3.58;;;1.42;;
24337;SDS011;12457;50.832;4.346;2022-09-09T14:12:42;4.00;;;1.30;;
24337;SDS011;12457;50.832;4.346;2022-09-09T14:15:11;6.35;;;1.95;;
24337;SDS011;12457;50.832;4.346;2022-09-09T14:17:38;12.38;;;4.15;;
24337;SDS011;12457;50.832;4.346;2022-09-09T14:20:04;5.95;;;1.58;;
24337;SDS011;12457;50.832;4.346;2022-09-09T14:22:32;8.80;;;2.10;;
24337;SDS011;12457;50.832;4.346;2022-09-09T14:24:58;8.70;;;1.70;;
24337;SDS011;12457;50.832;4.346;2022-09-09T14:27:24;5.78;;;1.90;;
24337;SDS011;12457;50.832;4.346;2022-09-09T14:29:51;5.10;;;1.70;;
24337;SDS011;12457;50.832;4.346;2022-09-09T14:32:17;5.88;;;2.00;;
24337;SDS011;12457;50.832;4.346;2022-09-09T14:34:43;10.18;;;3.40;;
24337;SDS011;12457;50.832;4.346;2022-09-09T14:37:54;12.07;;;2.88;;
24337;SDS011;12457;50.832;4.346;2022-09-09T14:40:16;5.30;;;2.17;;
24337;SDS011;12457;50.832;4.346;2022-09-09T14:42:42;8.88;;;3.88;;
24337;SDS011;12457;50.832;4.346;2022-09-09T14:45:08;6.40;;;2.97;;
24337;SDS011;12457;50.832;4.346;2022-09-09T14:47:46;8.25;;;2.08;;
24337;SDS011;12457;50.832;4.346;2022-09-09T14:50:30;9.10;;;3.97;;
24337;SDS011;12457;50.832;4.346;2022-09-09T14:53:08;9.10;;;3.35;;
24337;SDS011;12457;50.832;4.346;2022-09-09T14:55:35;7.45;;;2.75;;
24337;SDS011;12457;50.832;4.346;2022-09-09T14:58:02;10.63;;;4.82;;
24337;SDS011;12457;50.832;4.346;2022-09-09T15:00:28;5.95;;;1.80;;
24337;SDS011;12457;50.832;4.346;2022-09-09T15:02:54;6.68;;;1.83;;
24337;SDS011;12457;50.832;4.346;2022-09-09T15:05:20;8.32;;;1.77;;
24337;SDS011;12457;50.832;4.346;2022-09-09T15:07:46;5.47;;;1.80;;
24337;SDS011;12457;50.832;4.346;2022-09-09T15:10:13;8.38;;;1.67;;
24337;SDS011;12457;50.832;4.346;2022-09-09T15:12:39;6.57;;;1.90;;
24337;SDS011;12457;50.832;4.346;2022-09-09T15:15:07;9.38;;;2.10;;
24337;SDS011;12457;50.832;4.346;2022-09-09T15:17:33;8.73;;;3.42;;
24337;SDS011;12457;50.832;4.346;2022-09-09T15:19:59;15.75;;;5.88;;
24337;SDS011;12457;50.832;4.346;2022-09-09T15:22:25;10.35;;;5.00;;
24337;SDS011;12457;50.832;4.346;2022-09-09T15:24:50;27.40;;;14.45;;
24337;SDS011;12457;50.832;4.346;2022-09-09T15:27:16;11.50;;;6.47;;
24337;SDS011;12457;50.832;4.346;2022-09-09T15:29:42;42.33;;;21.95;;
24337;SDS011;12457;50.832;4.346;2022-09-09T15:32:09;18.70;;;6.78;;
24337;SDS011;12457;50.832;4.346;2022-09-09T15:34:34;13.73;;;5.72;;
24337;SDS011;12457;50.832;4.346;2022-09-09T15:37:00;9.75;;;3.63;;
24337;SDS011;12457;50.832;4.346;2022-09-09T15:39:26;12.13;;;3.80;;
24337;SDS011;12457;50.832;4.346;2022-09-09T15:42:19;7.90;;;3.78;;
24337;SDS011;12457;50.832;4.346;2022-09-09T15:45:16;14.60;;;6.47;;
24337;SDS011;12457;50.832;4.346;2022-09-09T15:47:46;16.88;;;9.20;;
24337;SDS011;12457;50.832;4.346;2022-09-09T15:50:12;8.63;;;4.28;;
24337;SDS011;12457;50.832;4.346;2022-09-09T15:52:38;8.25;;;4.72;;
24337;SDS011;12457;50.832;4.346;2022-09-09T15:55:03;32.70;;;18.15;;
24337;SDS011;12457;50.832;4.346;2022-09-09T15:57:29;22.88;;;12.40;;
24337;SDS011;12457;50.832;4.346;2022-09-09T16:03:12;58.03;;;37.88;;
24337;SDS011;12457;50.832;4.346;2022-09-09T16:05:56;18.80;;;10.25;;
24337;SDS011;12457;50.832;4.346;2022-09-09T16:11:04;10.77;;;3.67;;
24337;SDS011;12457;50.832;4.346;2022-09-09T16:13:59;9.20;;;3.22;;
24337;SDS011;12457;50.832;4.346;2022-09-09T16:16:26;7.05;;;2.00;;
24337;SDS011;12457;50.832;4.346;2022-09-09T16:18:57;6.97;;;2.90;;
24337;SDS011;12457;50.832;4.346;2022-09-09T16:21:36;9.80;;;2.80;;
24337;SDS011;12457;50.832;4.346;2022-09-09T16:24:07;20.73;;;8.60;;
24337;SDS011;12457;50.832;4.346;2022-09-09T16:26:34;26.25;;;12.38;;
24337;SDS011;12457;50.832;4.346;2022-09-09T16:29:01;10.20;;;2.88;;
24337;SDS011;12457;50.832;4.346;2022-09-09T16:31:28;7.65;;;1.95;;
24337;SDS011;12457;50.832;4.346;2022-09-09T16:33:55;4.50;;;2.22;;
24337;SDS011;12457;50.832;4.346;2022-09-09T16:36:23;5.28;;;2.13;;
24337;SDS011;12457;50.832;4.346;2022-09-09T16:41:45;5.78;;;2.10;;
24337;SDS011;12457;50.832;4.346;2022-09-09T16:44:13;8.95;;;2.05;;
24337;SDS011;12457;50.832;4.346;2022-09-09T16:46:43;7.05;;;2.22;;
24337;SDS011;12457;50.832;4.346;2022-09-09T16:49:11;8.63;;;3.22;;
24337;SDS011;12457;50.832;4.346;2022-09-09T16:51:42;5.47;;;2.55;;
24337;SDS011;12457;50.832;4.346;2022-09-09T16:54:12;11.52;;;3.00;;
24337;SDS011;12457;50.832;4.346;2022-09-09T16:56:39;7.63;;;3.00;;
24337;SDS011;12457;50.832;4.346;2022-09-09T16:59:11;12.02;;;3.00;;
24337;SDS011;12457;50.832;4.346;2022-09-09T17:01:39;9.55;;;2.88;;
24337;SDS011;12457;50.832;4.346;2022-09-09T17:04:07;7.03;;;3.35;;
24337;SDS011;12457;50.832;4.346;2022-09-09T17:06:39;7.38;;;3.00;;
24337;SDS011;12457;50.832;4.346;2022-09-09T17:09:15;7.78;;;3.85;;
24337;SDS011;12457;50.832;4.346;2022-09-09T17:11:57;9.77;;;4.72;;
24337;SDS011;12457;50.832;4.346;2022-09-09T17:14:23;11.85;;;5.30;;
24337;SDS011;12457;50.832;4.346;2022-09-09T17:16:49;39.70;;;23.38;;
24337;SDS011;12457;50.832;4.346;2022-09-09T17:19:18;16.38;;;8.00;;
24337;SDS011;12457;50.832;4.346;2022-09-09T17:21:47;15.43;;;6.18;;
24337;SDS011;12457;50.832;4.346;2022-09-09T17:24:13;17.23;;;5.70;;
24337;SDS011;12457;50.832;4.346;2022-09-09T17:26:39;16.55;;;4.28;;
24337;SDS011;12457;50.832;4.346;2022-09-09T17:29:05;6.97;;;2.63;;
24337;SDS011;12457;50.832;4.346;2022-09-09T17:31:34;12.32;;;6.25;;
24337;SDS011;12457;50.832;4.346;2022-09-09T17:34:03;15.55;;;7.18;;
24337;SDS011;12457;50.832;4.346;2022-09-09T17:36:33;13.73;;;4.30;;
24337;SDS011;12457;50.832;4.346;2022-09-09T17:38:59;15.23;;;6.18;;
24337;SDS011;12457;50.832;4.346;2022-09-09T17:41:27;39.65;;;22.92;;
24337;SDS011;12457;50.832;4.346;2022-09-09T17:43:55;61.72;;;38.70;;
24337;SDS011;12457;50.832;4.346;2022-09-09T17:46:32;54.08;;;31.55;;
24337;SDS011;12457;50.832;4.346;2022-09-09T17:49:14;34.70;;;15.65;;
24337;SDS011;12457;50.832;4.346;2022-09-09T17:51:42;18.23;;;8.30;;
24337;SDS011;12457;50.832;4.346;2022-09-09T17:54:14;15.88;;;7.88;;